sensor_id;sensor_type;location;lat;lon;timestamp;temperature;humidity
30381;DHT22;17169;50.966;11.038;2024-02-21T00:01:17;8.80;99.90
30381;DHT22;17169;50.966;11.038;2024-02-21T00:04:22;8.80;99.90
30381;DHT22;17169;50.966;11.038;2024-02-21T00:07:24;8.80;99.90
30381;DHT22;17169;50.966;11.038;2024-02-21T00:10:27;8.80;99.90
30381;DHT22;17169;50.966;11.038;2024-02-21T00:13:30;8.80;99.90
30381;DHT22;17169;50.966;11.038;2024-02-21T00:16:32;8.80;99.90
30381;DHT22;17169;50.966;11.038;2024-02-21T00:19:36;8.80;99.90
30381;DHT22;17169;50.966;11.038;2024-02-21T00:22:38;8.80;99.90
30381;DHT22;17169;50.966;11.038;2024-02-21T00:25:40;8.80;99.90
30381;DHT22;17169;50.966;11.038;2024-02-21T00:28:43;8.90;99.90
30381;DHT22;17169;50.966;11.038;2024-02-21T00:31:45;8.90;99.90
30381;DHT22;17169;50.966;11.038;2024-02-21T00:34:49;8.90;99.90
30381;DHT22;17169;50.966;11.038;2024-02-21T00:37:51;8.90;99.90
30381;DHT22;17169;50.966;11.038;2024-02-21T00:40:54;8.90;99.90
30381;DHT22;17169;50.966;11.038;2024-02-21T00:43:56;8.90;99.90
30381;DHT22;17169;50.966;11.038;2024-02-21T00:46:59;8.90;99.90
30381;DHT22;17169;50.966;11.038;2024-02-21T00:50:03;8.90;99.90
30381;DHT22;17169;50.966;11.038;2024-02-21T00:53:05;8.90;99.90
30381;DHT22;17169;50.966;11.038;2024-02-21T00:56:07;8.90;99.90
30381;DHT22;17169;50.966;11.038;2024-02-21T00:59:10;8.90;99.90
30381;DHT22;17169;50.966;11.038;2024-02-21T01:02:12;8.90;99.90
30381;DHT22;17169;50.966;11.038;2024-02-21T01:05:16;9.00;99.90
30381;DHT22;17169;50.966;11.038;2024-02-21T01:08:18;8.90;99.90
30381;DHT22;17169;50.966;11.038;2024-02-21T01:11:21;9.00;99.90
30381;DHT22;17169;50.966;11.038;2024-02-21T01:14:23;8.90;99.90
30381;DHT22;17169;50.966;11.038;2024-02-21T01:17:25;9.00;99.90
30381;DHT22;17169;50.966;11.038;2024-02-21T01:20:29;9.00;99.90
30381;DHT22;17169;50.966;11.038;2024-02-21T01:23:31;9.00;99.90
30381;DHT22;17169;50.966;11.038;2024-02-21T01:26:34;8.90;99.90
30381;DHT22;17169;50.966;11.038;2024-02-21T01:29:36;9.00;99.90
30381;DHT22;17169;50.966;11.038;2024-02-21T01:32:38;9.10;99.90
30381;DHT22;17169;50.966;11.038;2024-02-21T01:35:42;9.00;99.90
30381;DHT22;17169;50.966;11.038;2024-02-21T01:41:48;9.00;99.90
30381;DHT22;17169;50.966;11.038;2024-02-21T01:44:50;9.00;99.90
30381;DHT22;17169;50.966;11.038;2024-02-21T01:47:53;9.00;99.90
30381;DHT22;17169;50.966;11.038;2024-02-21T01:50:57;9.00;99.90
30381;DHT22;17169;50.966;11.038;2024-02-21T01:53:59;9.00;99.90
30381;DHT22;17169;50.966;11.038;2024-02-21T01:57:02;9.00;99.90
30381;DHT22;17169;50.966;11.038;2024-02-21T02:00:05;9.00;99.90
30381;DHT22;17169;50.966;11.038;2024-02-21T02:03:09;8.90;99.90
30381;DHT22;17169;50.966;11.038;2024-02-21T02:06:19;9.00;99.90
30381;DHT22;17169;50.966;11.038;2024-02-21T02:09:21;9.00;99.90
30381;DHT22;17169;50.966;11.038;2024-02-21T02:12:23;8.90;99.90
30381;DHT22;17169;50.966;11.038;2024-02-21T02:15:26;8.90;99.90
30381;DHT22;17169;50.966;11.038;2024-02-21T02:18:28;8.90;99.90
30381;DHT22;17169;50.966;11.038;2024-02-21T02:21:34;8.90;99.90
30381;DHT22;17169;50.966;11.038;2024-02-21T02:24:39;8.90;99.90
30381;DHT22;17169;50.966;11.038;2024-02-21T02:27:42;8.90;99.90
30381;DHT22;17169;50.966;11.038;2024-02-21T02:30:46;8.80;99.90
30381;DHT22;17169;50.966;11.038;2024-02-21T02:33:48;8.90;99.90
30381;DHT22;17169;50.966;11.038;2024-02-21T02:36:51;8.80;99.90
30381;DHT22;17169;50.966;11.038;2024-02-21T02:39:55;8.80;99.90
30381;DHT22;17169;50.966;11.038;2024-02-21T02:42:57;8.80;99.90
30381;DHT22;17169;50.966;11.038;2024-02-21T02:45:59;8.70;99.90
30381;DHT22;17169;50.966;11.038;2024-02-21T02:49:02;8.80;99.90
30381;DHT22;17169;50.966;11.038;2024-02-21T02:52:05;8.80;99.90
30381;DHT22;17169;50.966;11.038;2024-02-21T02:55:08;8.80;99.90
30381;DHT22;17169;50.966;11.038;2024-02-21T02:58:11;8.80;99.90
30381;DHT22;17169;50.966;11.038;2024-02-21T03:01:13;8.90;99.90
30381;DHT22;17169;50.966;11.038;2024-02-21T03:04:16;8.90;99.90
30381;DHT22;17169;50.966;11.038;2024-02-21T03:07:18;8.90;99.90
30381;DHT22;17169;50.966;11.038;2024-02-21T03:10:22;8.90;99.90
30381;DHT22;17169;50.966;11.038;2024-02-21T03:13:24;8.80;99.90
30381;DHT22;17169;50.966;11.038;2024-02-21T03:16:26;8.80;99.90
30381;DHT22;17169;50.966;11.038;2024-02-21T03:19:29;8.80;99.90
30381;DHT22;17169;50.966;11.038;2024-02-21T03:22:31;8.80;99.90
30381;DHT22;17169;50.966;11.038;2024-02-21T03:25:35;8.80;99.90
30381;DHT22;17169;50.966;11.038;2024-02-21T03:28:38;8.70;99.90
30381;DHT22;17169;50.966;11.038;2024-02-21T03:31:40;8.70;99.90
30381;DHT22;17169;50.966;11.038;2024-02-21T03:34:43;8.70;99.90
30381;DHT22;17169;50.966;11.038;2024-02-21T03:37:45;8.70;99.90
30381;DHT22;17169;50.966;11.038;2024-02-21T03:40:49;8.80;99.90
30381;DHT22;17169;50.966;11.038;2024-02-21T03:43:51;8.80;99.90
30381;DHT22;17169;50.966;11.038;2024-02-21T03:46:54;8.90;99.90
30381;DHT22;17169;50.966;11.038;2024-02-21T03:49:56;8.90;99.90
30381;DHT22;17169;50.966;11.038;2024-02-21T03:53:00;8.90;99.90
30381;DHT22;17169;50.966;11.038;2024-02-21T03:56:04;9.00;99.90
30381;DHT22;17169;50.966;11.038;2024-02-21T03:59:07;9.00;99.90
30381;DHT22;17169;50.966;11.038;2024-02-21T04:02:09;9.00;99.90
30381;DHT22;17169;50.966;11.038;2024-02-21T04:05:15;9.00;99.90
30381;DHT22;17169;50.966;11.038;2024-02-21T04:08:18;9.00;99.90
30381;DHT22;17169;50.966;11.038;2024-02-21T04:11:21;9.00;99.90
30381;DHT22;17169;50.966;11.038;2024-02-21T04:14:24;9.00;99.90
30381;DHT22;17169;50.966;11.038;2024-02-21T04:17:26;9.00;99.90
30381;DHT22;17169;50.966;11.038;2024-02-21T04:20:29;9.00;99.90
30381;DHT22;17169;50.966;11.038;2024-02-21T04:23:31;9.00;99.90
30381;DHT22;17169;50.966;11.038;2024-02-21T04:26:35;9.00;99.90
30381;DHT22;17169;50.966;11.038;2024-02-21T04:29:37;9.00;99.90
30381;DHT22;17169;50.966;11.038;2024-02-21T04:32:40;8.90;99.90
30381;DHT22;17169;50.966;11.038;2024-02-21T04:35:42;8.90;99.90
30381;DHT22;17169;50.966;11.038;2024-02-21T04:38:45;8.90;99.90
30381;DHT22;17169;50.966;11.038;2024-02-21T04:41:49;8.80;99.90
30381;DHT22;17169;50.966;11.038;2024-02-21T04:44:51;8.80;99.90
30381;DHT22;17169;50.966;11.038;2024-02-21T04:47:54;8.90;99.90
30381;DHT22;17169;50.966;11.038;2024-02-21T04:50:56;8.90;99.90
30381;DHT22;17169;50.966;11.038;2024-02-21T04:53:59;8.90;99.90
30381;DHT22;17169;50.966;11.038;2024-02-21T04:57:03;8.90;99.90
30381;DHT22;17169;50.966;11.038;2024-02-21T05:00:07;8.90;99.90
30381;DHT22;17169;50.966;11.038;2024-02-21T05:03:10;8.90;99.90
30381;DHT22;17169;50.966;11.038;2024-02-21T05:06:12;8.90;99.90
30381;DHT22;17169;50.966;11.038;2024-02-21T05:09:15;8.80;99.90
30381;DHT22;17169;50.966;11.038;2024-02-21T05:12:19;8.90;99.90
30381;DHT22;17169;50.966;11.038;2024-02-21T05:15:21;8.80;99.90
30381;DHT22;17169;50.966;11.038;2024-02-21T05:18:23;8.80;99.90
30381;DHT22;17169;50.966;11.038;2024-02-21T05:21:26;8.90;99.90
30381;DHT22;17169;50.966;11.038;2024-02-21T05:24:29;8.90;99.90
30381;DHT22;17169;50.966;11.038;2024-02-21T05:27:33;8.90;99.90
30381;DHT22;17169;50.966;11.038;2024-02-21T05:30:36;8.90;99.90
30381;DHT22;17169;50.966;11.038;2024-02-21T05:33:39;8.90;99.90
30381;DHT22;17169;50.966;11.038;2024-02-21T05:36:41;8.80;99.90
30381;DHT22;17169;50.966;11.038;2024-02-21T05:39:44;8.80;99.90
30381;DHT22;17169;50.966;11.038;2024-02-21T05:42:47;8.80;99.90
30381;DHT22;17169;50.966;11.038;2024-02-21T05:45:52;8.80;99.90
30381;DHT22;17169;50.966;11.038;2024-02-21T05:48:54;8.80;99.90
30381;DHT22;17169;50.966;11.038;2024-02-21T05:51:56;8.80;99.90
30381;DHT22;17169;50.966;11.038;2024-02-21T05:54:59;8.80;99.90
30381;DHT22;17169;50.966;11.038;2024-02-21T05:58:03;8.80;99.90
30381;DHT22;17169;50.966;11.038;2024-02-21T06:01:07;8.80;99.90
30381;DHT22;17169;50.966;11.038;2024-02-21T06:04:10;8.80;99.90
30381;DHT22;17169;50.966;11.038;2024-02-21T06:07:12;8.70;99.90
30381;DHT22;17169;50.966;11.038;2024-02-21T06:10:14;8.70;99.90
30381;DHT22;17169;50.966;11.038;2024-02-21T06:13:18;8.70;99.90
30381;DHT22;17169;50.966;11.038;2024-02-21T06:16:22;8.70;99.90
30381;DHT22;17169;50.966;11.038;2024-02-21T06:19:24;8.70;99.90
30381;DHT22;17169;50.966;11.038;2024-02-21T06:22:27;8.70;99.90
30381;DHT22;17169;50.966;11.038;2024-02-21T06:25:29;8.70;99.90
30381;DHT22;17169;50.966;11.038;2024-02-21T06:28:33;8.60;99.90
30381;DHT22;17169;50.966;11.038;2024-02-21T06:31:35;8.60;99.90
30381;DHT22;17169;50.966;11.038;2024-02-21T06:34:37;8.60;99.90
30381;DHT22;17169;50.966;11.038;2024-02-21T06:37:40;8.70;99.90
30381;DHT22;17169;50.966;11.038;2024-02-21T06:40:42;8.70;99.90
30381;DHT22;17169;50.966;11.038;2024-02-21T06:43:51;8.70;99.90
30381;DHT22;17169;50.966;11.038;2024-02-21T06:46:53;8.70;99.90
30381;DHT22;17169;50.966;11.038;2024-02-21T06:49:56;8.70;99.90
30381;DHT22;17169;50.966;11.038;2024-02-21T06:52:58;8.70;99.90
30381;DHT22;17169;50.966;11.038;2024-02-21T06:56:00;8.70;99.90
30381;DHT22;17169;50.966;11.038;2024-02-21T06:59:04;8.70;99.90
30381;DHT22;17169;50.966;11.038;2024-02-21T07:02:07;8.70;99.90
30381;DHT22;17169;50.966;11.038;2024-02-21T07:05:09;8.80;99.90
30381;DHT22;17169;50.966;11.038;2024-02-21T07:08:12;8.70;99.90
30381;DHT22;17169;50.966;11.038;2024-02-21T07:11:14;8.80;99.90
30381;DHT22;17169;50.966;11.038;2024-02-21T07:14:18;8.80;99.90
30381;DHT22;17169;50.966;11.038;2024-02-21T07:17:20;8.80;99.90
30381;DHT22;17169;50.966;11.038;2024-02-21T07:20:23;8.90;99.90
30381;DHT22;17169;50.966;11.038;2024-02-21T07:23:25;8.90;99.90
30381;DHT22;17169;50.966;11.038;2024-02-21T07:26:27;8.90;99.90
30381;DHT22;17169;50.966;11.038;2024-02-21T07:29:31;9.00;99.90
30381;DHT22;17169;50.966;11.038;2024-02-21T07:32:33;8.90;99.90
30381;DHT22;17169;50.966;11.038;2024-02-21T07:35:36;9.00;99.90
30381;DHT22;17169;50.966;11.038;2024-02-21T07:38:39;9.00;99.90
30381;DHT22;17169;50.966;11.038;2024-02-21T07:41:41;9.00;99.90
30381;DHT22;17169;50.966;11.038;2024-02-21T07:44:47;8.90;99.90
30381;DHT22;17169;50.966;11.038;2024-02-21T07:47:49;8.90;99.90
30381;DHT22;17169;50.966;11.038;2024-02-21T07:50:52;9.00;99.90
30381;DHT22;17169;50.966;11.038;2024-02-21T07:53:54;8.90;99.90
30381;DHT22;17169;50.966;11.038;2024-02-21T07:56:57;9.00;99.90
30381;DHT22;17169;50.966;11.038;2024-02-21T08:00:00;9.00;99.90
30381;DHT22;17169;50.966;11.038;2024-02-21T08:03:03;9.00;99.90
30381;DHT22;17169;50.966;11.038;2024-02-21T08:06:06;9.00;99.90
30381;DHT22;17169;50.966;11.038;2024-02-21T08:09:13;9.00;99.90
30381;DHT22;17169;50.966;11.038;2024-02-21T08:12:16;9.00;99.90
30381;DHT22;17169;50.966;11.038;2024-02-21T08:15:19;9.00;99.90
30381;DHT22;17169;50.966;11.038;2024-02-21T08:18:25;9.00;99.90
30381;DHT22;17169;50.966;11.038;2024-02-21T08:21:27;9.00;99.90
30381;DHT22;17169;50.966;11.038;2024-02-21T08:24:30;9.00;99.90
30381;DHT22;17169;50.966;11.038;2024-02-21T08:27:32;9.10;99.90
30381;DHT22;17169;50.966;11.038;2024-02-21T08:30:36;9.10;99.90
30381;DHT22;17169;50.966;11.038;2024-02-21T08:33:39;9.20;99.90
30381;DHT22;17169;50.966;11.038;2024-02-21T08:36:41;9.20;99.90
30381;DHT22;17169;50.966;11.038;2024-02-21T08:39:44;9.20;99.90
30381;DHT22;17169;50.966;11.038;2024-02-21T08:42:46;9.20;99.90
30381;DHT22;17169;50.966;11.038;2024-02-21T08:45:50;9.10;99.90
30381;DHT22;17169;50.966;11.038;2024-02-21T08:48:53;9.20;99.90
30381;DHT22;17169;50.966;11.038;2024-02-21T08:51:55;9.20;99.90
30381;DHT22;17169;50.966;11.038;2024-02-21T08:54:57;9.10;99.90
30381;DHT22;17169;50.966;11.038;2024-02-21T08:58:00;9.10;99.90
30381;DHT22;17169;50.966;11.038;2024-02-21T09:01:07;9.10;99.90
30381;DHT22;17169;50.966;11.038;2024-02-21T09:04:11;9.20;99.90
30381;DHT22;17169;50.966;11.038;2024-02-21T09:07:13;9.20;99.90
30381;DHT22;17169;50.966;11.038;2024-02-21T09:10:16;9.20;99.90
30381;DHT22;17169;50.966;11.038;2024-02-21T09:13:18;9.30;99.90
30381;DHT22;17169;50.966;11.038;2024-02-21T09:16:22;9.30;99.90
30381;DHT22;17169;50.966;11.038;2024-02-21T09:19:25;9.40;99.90
30381;DHT22;17169;50.966;11.038;2024-02-21T09:22:27;9.40;99.90
30381;DHT22;17169;50.966;11.038;2024-02-21T09:25:29;9.50;99.90
30381;DHT22;17169;50.966;11.038;2024-02-21T09:28:32;9.50;99.90
30381;DHT22;17169;50.966;11.038;2024-02-21T09:31:36;9.50;99.90
30381;DHT22;17169;50.966;11.038;2024-02-21T09:34:39;9.50;99.90
30381;DHT22;17169;50.966;11.038;2024-02-21T09:37:42;9.60;99.90
30381;DHT22;17169;50.966;11.038;2024-02-21T09:40:44;9.60;99.90
30381;DHT22;17169;50.966;11.038;2024-02-21T09:43:50;9.50;99.90
30381;DHT22;17169;50.966;11.038;2024-02-21T09:47:02;9.60;99.90
30381;DHT22;17169;50.966;11.038;2024-02-21T09:50:06;9.60;99.90
30381;DHT22;17169;50.966;11.038;2024-02-21T09:53:10;9.70;99.90
30381;DHT22;17169;50.966;11.038;2024-02-21T09:56:14;9.70;99.90
30381;DHT22;17169;50.966;11.038;2024-02-21T09:59:16;9.70;99.90
30381;DHT22;17169;50.966;11.038;2024-02-21T10:02:20;9.80;99.90
30381;DHT22;17169;50.966;11.038;2024-02-21T10:05:23;9.80;99.90
30381;DHT22;17169;50.966;11.038;2024-02-21T10:08:26;9.90;99.90
30381;DHT22;17169;50.966;11.038;2024-02-21T10:11:28;10.10;99.90
30381;DHT22;17169;50.966;11.038;2024-02-21T10:14:31;10.20;99.90
30381;DHT22;17169;50.966;11.038;2024-02-21T10:17:35;10.20;99.90
30381;DHT22;17169;50.966;11.038;2024-02-21T10:20:38;10.20;99.90
30381;DHT22;17169;50.966;11.038;2024-02-21T10:23:42;10.20;99.90
30381;DHT22;17169;50.966;11.038;2024-02-21T10:26:44;10.30;99.90
30381;DHT22;17169;50.966;11.038;2024-02-21T10:29:49;10.40;99.90
30381;DHT22;17169;50.966;11.038;2024-02-21T10:32:54;10.50;99.90
30381;DHT22;17169;50.966;11.038;2024-02-21T10:36:06;10.50;99.90
30381;DHT22;17169;50.966;11.038;2024-02-21T10:39:10;10.60;99.90
30381;DHT22;17169;50.966;11.038;2024-02-21T10:42:12;10.70;99.90
30381;DHT22;17169;50.966;11.038;2024-02-21T10:45:16;10.80;99.90
30381;DHT22;17169;50.966;11.038;2024-02-21T10:48:24;10.80;99.90
30381;DHT22;17169;50.966;11.038;2024-02-21T10:51:33;10.90;99.90
30381;DHT22;17169;50.966;11.038;2024-02-21T10:54:43;10.80;99.90
30381;DHT22;17169;50.966;11.038;2024-02-21T10:57:46;10.90;99.90
30381;DHT22;17169;50.966;11.038;2024-02-21T11:00:50;10.90;99.90
30381;DHT22;17169;50.966;11.038;2024-02-21T11:03:55;11.00;99.90
30381;DHT22;17169;50.966;11.038;2024-02-21T11:07:00;11.10;99.90
30381;DHT22;17169;50.966;11.038;2024-02-21T11:10:03;11.20;99.90
30381;DHT22;17169;50.966;11.038;2024-02-21T11:13:08;11.40;99.90
30381;DHT22;17169;50.966;11.038;2024-02-21T11:16:11;11.60;99.90
30381;DHT22;17169;50.966;11.038;2024-02-21T11:19:21;11.80;99.90
30381;DHT22;17169;50.966;11.038;2024-02-21T11:22:24;11.90;99.90
30381;DHT22;17169;50.966;11.038;2024-02-21T11:25:30;12.00;99.90
30381;DHT22;17169;50.966;11.038;2024-02-21T11:28:34;12.10;99.90
30381;DHT22;17169;50.966;11.038;2024-02-21T11:31:41;12.10;99.90
30381;DHT22;17169;50.966;11.038;2024-02-21T11:34:55;12.20;99.90
30381;DHT22;17169;50.966;11.038;2024-02-21T11:38:07;12.20;99.90
30381;DHT22;17169;50.966;11.038;2024-02-21T11:41:10;12.10;99.90
30381;DHT22;17169;50.966;11.038;2024-02-21T11:44:12;12.20;99.90
30381;DHT22;17169;50.966;11.038;2024-02-21T11:47:15;12.30;99.90
30381;DHT22;17169;50.966;11.038;2024-02-21T11:50:20;12.40;99.90
30381;DHT22;17169;50.966;11.038;2024-02-21T11:53:22;12.30;99.90
30381;DHT22;17169;50.966;11.038;2024-02-21T11:56:24;12.40;99.90
30381;DHT22;17169;50.966;11.038;2024-02-21T11:59:29;12.50;99.90
30381;DHT22;17169;50.966;11.038;2024-02-21T12:02:32;12.60;99.90
30381;DHT22;17169;50.966;11.038;2024-02-21T12:05:35;12.50;99.90
30381;DHT22;17169;50.966;11.038;2024-02-21T12:08:41;12.50;99.90
30381;DHT22;17169;50.966;11.038;2024-02-21T12:11:45;12.50;99.90
30381;DHT22;17169;50.966;11.038;2024-02-21T12:14:53;12.50;99.90
30381;DHT22;17169;50.966;11.038;2024-02-21T12:17:56;12.60;99.90
30381;DHT22;17169;50.966;11.038;2024-02-21T12:20:59;12.70;99.90
30381;DHT22;17169;50.966;11.038;2024-02-21T12:24:11;12.80;99.90
30381;DHT22;17169;50.966;11.038;2024-02-21T12:27:14;12.90;99.90
30381;DHT22;17169;50.966;11.038;2024-02-21T12:30:16;13.00;99.90
30381;DHT22;17169;50.966;11.038;2024-02-21T12:33:19;13.10;99.90
30381;DHT22;17169;50.966;11.038;2024-02-21T12:36:23;13.20;99.90
30381;DHT22;17169;50.966;11.038;2024-02-21T12:39:27;13.10;99.60
30381;DHT22;17169;50.966;11.038;2024-02-21T12:42:29;13.20;99.90
30381;DHT22;17169;50.966;11.038;2024-02-21T12:45:32;13.30;99.90
30381;DHT22;17169;50.966;11.038;2024-02-21T12:48:35;13.50;99.10
30381;DHT22;17169;50.966;11.038;2024-02-21T12:51:39;13.40;98.70
30381;DHT22;17169;50.966;11.038;2024-02-21T12:54:43;13.40;99.30
30381;DHT22;17169;50.966;11.038;2024-02-21T12:57:45;13.50;99.10
30381;DHT22;17169;50.966;11.038;2024-02-21T13:00:47;13.50;98.70
30381;DHT22;17169;50.966;11.038;2024-02-21T13:03:50;13.50;99.00
30381;DHT22;17169;50.966;11.038;2024-02-21T13:06:54;13.60;99.00
30381;DHT22;17169;50.966;11.038;2024-02-21T13:09:56;13.60;98.00
30381;DHT22;17169;50.966;11.038;2024-02-21T13:12:59;13.60;98.60
30381;DHT22;17169;50.966;11.038;2024-02-21T13:16:01;13.70;98.10
30381;DHT22;17169;50.966;11.038;2024-02-21T13:19:04;13.70;97.50
30381;DHT22;17169;50.966;11.038;2024-02-21T13:22:08;13.80;97.50
30381;DHT22;17169;50.966;11.038;2024-02-21T13:25:10;13.80;97.60
30381;DHT22;17169;50.966;11.038;2024-02-21T13:28:16;13.70;97.10
30381;DHT22;17169;50.966;11.038;2024-02-21T13:31:18;13.60;96.80
30381;DHT22;17169;50.966;11.038;2024-02-21T13:34:20;13.60;97.20
30381;DHT22;17169;50.966;11.038;2024-02-21T13:37:24;13.70;97.20
30381;DHT22;17169;50.966;11.038;2024-02-21T13:40:27;13.80;97.40
30381;DHT22;17169;50.966;11.038;2024-02-21T13:43:30;14.00;97.50
30381;DHT22;17169;50.966;11.038;2024-02-21T13:46:33;14.10;96.40
30381;DHT22;17169;50.966;11.038;2024-02-21T13:49:35;14.10;96.90
30381;DHT22;17169;50.966;11.038;2024-02-21T13:52:39;14.10;96.20
30381;DHT22;17169;50.966;11.038;2024-02-21T13:55:41;14.00;96.50
30381;DHT22;17169;50.966;11.038;2024-02-21T13:58:44;14.00;96.90
30381;DHT22;17169;50.966;11.038;2024-02-21T14:01:47;14.10;96.90
30381;DHT22;17169;50.966;11.038;2024-02-21T14:04:49;14.10;96.70
30381;DHT22;17169;50.966;11.038;2024-02-21T14:07:53;14.10;95.90
30381;DHT22;17169;50.966;11.038;2024-02-21T14:10:55;14.10;96.00
30381;DHT22;17169;50.966;11.038;2024-02-21T14:14:00;13.90;95.80
30381;DHT22;17169;50.966;11.038;2024-02-21T14:17:02;14.00;96.00
30381;DHT22;17169;50.966;11.038;2024-02-21T14:20:07;13.90;95.90
30381;DHT22;17169;50.966;11.038;2024-02-21T14:23:11;13.90;96.10
30381;DHT22;17169;50.966;11.038;2024-02-21T14:26:14;13.90;96.00
30381;DHT22;17169;50.966;11.038;2024-02-21T14:29:16;13.90;96.00
30381;DHT22;17169;50.966;11.038;2024-02-21T14:32:19;13.80;96.30
30381;DHT22;17169;50.966;11.038;2024-02-21T14:35:21;13.80;96.10
30381;DHT22;17169;50.966;11.038;2024-02-21T14:38:25;13.70;96.50
30381;DHT22;17169;50.966;11.038;2024-02-21T14:41:28;13.50;96.60
30381;DHT22;17169;50.966;11.038;2024-02-21T14:44:31;13.50;97.10
30381;DHT22;17169;50.966;11.038;2024-02-21T14:47:33;13.50;97.10
30381;DHT22;17169;50.966;11.038;2024-02-21T14:50:35;13.60;97.20
30381;DHT22;17169;50.966;11.038;2024-02-21T14:53:39;13.50;97.10
30381;DHT22;17169;50.966;11.038;2024-02-21T14:56:41;13.40;97.30
30381;DHT22;17169;50.966;11.038;2024-02-21T14:59:44;13.40;97.50
30381;DHT22;17169;50.966;11.038;2024-02-21T15:02:46;13.30;97.60
30381;DHT22;17169;50.966;11.038;2024-02-21T15:05:49;13.20;97.40
30381;DHT22;17169;50.966;11.038;2024-02-21T15:08:53;13.10;97.60
30381;DHT22;17169;50.966;11.038;2024-02-21T15:11:55;13.00;97.80
30381;DHT22;17169;50.966;11.038;2024-02-21T15:14:57;12.80;97.70
30381;DHT22;17169;50.966;11.038;2024-02-21T15:18:00;12.70;97.90
30381;DHT22;17169;50.966;11.038;2024-02-21T15:21:04;12.70;98.40
30381;DHT22;17169;50.966;11.038;2024-02-21T15:24:09;12.60;98.30
30381;DHT22;17169;50.966;11.038;2024-02-21T15:27:12;12.60;98.40
30381;DHT22;17169;50.966;11.038;2024-02-21T15:30:14;12.60;98.50
30381;DHT22;17169;50.966;11.038;2024-02-21T15:33:17;12.50;98.30
30381;DHT22;17169;50.966;11.038;2024-02-21T15:36:19;12.30;98.40
30381;DHT22;17169;50.966;11.038;2024-02-21T15:39:23;12.20;98.60
30381;DHT22;17169;50.966;11.038;2024-02-21T15:42:28;12.20;98.80
30381;DHT22;17169;50.966;11.038;2024-02-21T15:45:32;12.10;98.70
30381;DHT22;17169;50.966;11.038;2024-02-21T15:48:35;12.10;98.80
30381;DHT22;17169;50.966;11.038;2024-02-21T15:51:37;12.10;98.90
30381;DHT22;17169;50.966;11.038;2024-02-21T15:54:43;12.00;99.00
30381;DHT22;17169;50.966;11.038;2024-02-21T15:57:45;12.00;98.90
30381;DHT22;17169;50.966;11.038;2024-02-21T16:00:48;12.00;98.80
30381;DHT22;17169;50.966;11.038;2024-02-21T16:03:51;12.00;98.80
30381;DHT22;17169;50.966;11.038;2024-02-21T16:06:59;12.00;98.60
30381;DHT22;17169;50.966;11.038;2024-02-21T16:10:03;11.90;98.50
30381;DHT22;17169;50.966;11.038;2024-02-21T16:13:05;11.90;98.70
30381;DHT22;17169;50.966;11.038;2024-02-21T16:16:08;11.80;98.20
30381;DHT22;17169;50.966;11.038;2024-02-21T16:19:10;11.70;98.30
30381;DHT22;17169;50.966;11.038;2024-02-21T16:22:14;11.70;98.40
30381;DHT22;17169;50.966;11.038;2024-02-21T16:25:18;11.60;98.40
30381;DHT22;17169;50.966;11.038;2024-02-21T16:28:21;11.60;98.70
30381;DHT22;17169;50.966;11.038;2024-02-21T16:31:23;11.60;99.00
30381;DHT22;17169;50.966;11.038;2024-02-21T16:34:25;11.60;99.50
30381;DHT22;17169;50.966;11.038;2024-02-21T16:37:28;11.60;99.90
30381;DHT22;17169;50.966;11.038;2024-02-21T16:40:33;11.50;99.90
30381;DHT22;17169;50.966;11.038;2024-02-21T16:43:35;11.50;99.90
30381;DHT22;17169;50.966;11.038;2024-02-21T16:46:37;11.40;99.90
30381;DHT22;17169;50.966;11.038;2024-02-21T16:49:40;11.30;99.90
30381;DHT22;17169;50.966;11.038;2024-02-21T16:52:42;11.30;99.90
30381;DHT22;17169;50.966;11.038;2024-02-21T16:55:47;11.20;99.90
30381;DHT22;17169;50.966;11.038;2024-02-21T16:58:49;11.20;99.90
30381;DHT22;17169;50.966;11.038;2024-02-21T17:01:52;11.10;99.90
30381;DHT22;17169;50.966;11.038;2024-02-21T17:04:56;11.10;99.90
30381;DHT22;17169;50.966;11.038;2024-02-21T17:07:59;11.00;99.90
30381;DHT22;17169;50.966;11.038;2024-02-21T17:11:03;11.00;99.90
30381;DHT22;17169;50.966;11.038;2024-02-21T17:14:06;10.80;99.90
30381;DHT22;17169;50.966;11.038;2024-02-21T17:17:08;10.80;99.90
30381;DHT22;17169;50.966;11.038;2024-02-21T17:20:11;10.70;99.90
30381;DHT22;17169;50.966;11.038;2024-02-21T17:23:14;10.70;99.90
30381;DHT22;17169;50.966;11.038;2024-02-21T17:26:18;10.60;99.90
30381;DHT22;17169;50.966;11.038;2024-02-21T17:29:22;10.60;99.90
30381;DHT22;17169;50.966;11.038;2024-02-21T17:32:25;10.60;99.90
30381;DHT22;17169;50.966;11.038;2024-02-21T17:35:27;10.50;99.90
30381;DHT22;17169;50.966;11.038;2024-02-21T17:38:29;10.50;99.90
30381;DHT22;17169;50.966;11.038;2024-02-21T17:41:33;10.40;99.90
30381;DHT22;17169;50.966;11.038;2024-02-21T17:44:35;10.40;99.90
30381;DHT22;17169;50.966;11.038;2024-02-21T17:47:39;10.40;99.90
30381;DHT22;17169;50.966;11.038;2024-02-21T17:50:41;10.40;99.90
30381;DHT22;17169;50.966;11.038;2024-02-21T17:53:44;10.40;99.90
30381;DHT22;17169;50.966;11.038;2024-02-21T17:56:48;10.40;99.90
30381;DHT22;17169;50.966;11.038;2024-02-21T17:59:50;10.40;99.90
30381;DHT22;17169;50.966;11.038;2024-02-21T18:02:54;10.40;99.90
30381;DHT22;17169;50.966;11.038;2024-02-21T18:05:59;10.30;99.90
30381;DHT22;17169;50.966;11.038;2024-02-21T18:09:02;10.30;99.90
30381;DHT22;17169;50.966;11.038;2024-02-21T18:12:07;10.30;99.90
30381;DHT22;17169;50.966;11.038;2024-02-21T18:15:09;10.30;99.90
30381;DHT22;17169;50.966;11.038;2024-02-21T18:18:12;10.30;99.90
30381;DHT22;17169;50.966;11.038;2024-02-21T18:21:15;10.30;99.90
30381;DHT22;17169;50.966;11.038;2024-02-21T18:24:17;10.40;99.90
30381;DHT22;17169;50.966;11.038;2024-02-21T18:27:21;10.30;99.90
30381;DHT22;17169;50.966;11.038;2024-02-21T18:30:24;10.40;99.90
30381;DHT22;17169;50.966;11.038;2024-02-21T18:33:26;10.40;99.90
30381;DHT22;17169;50.966;11.038;2024-02-21T18:36:29;10.40;99.90
30381;DHT22;17169;50.966;11.038;2024-02-21T18:39:32;10.40;99.90
30381;DHT22;17169;50.966;11.038;2024-02-21T18:42:36;10.40;99.90
30381;DHT22;17169;50.966;11.038;2024-02-21T18:45:38;10.40;99.90
30381;DHT22;17169;50.966;11.038;2024-02-21T18:48:41;10.40;99.90
30381;DHT22;17169;50.966;11.038;2024-02-21T18:51:47;10.40;99.90
30381;DHT22;17169;50.966;11.038;2024-02-21T18:54:49;10.40;99.90
30381;DHT22;17169;50.966;11.038;2024-02-21T18:57:53;10.40;99.90
30381;DHT22;17169;50.966;11.038;2024-02-21T19:00:55;10.40;99.90
30381;DHT22;17169;50.966;11.038;2024-02-21T19:03:57;10.40;99.90
30381;DHT22;17169;50.966;11.038;2024-02-21T19:07:00;10.40;99.90
30381;DHT22;17169;50.966;11.038;2024-02-21T19:10:03;10.40;99.90
30381;DHT22;17169;50.966;11.038;2024-02-21T19:13:07;10.40;99.90